createdAt,value
2018-08-03T00:00:17.488Z,23.13
2018-08-03T00:02:46.678Z,23.08
2018-08-03T00:05:15.765Z,23.17
2018-08-03T00:07:44.835Z,23.04
2018-08-03T00:10:13.945Z,23.17
2018-08-03T00:12:43.142Z,23.09
2018-08-03T00:15:12.194Z,22.93
2018-08-03T00:17:41.278Z,22.80
2018-08-03T00:20:10.328Z,22.87
2018-08-03T00:22:39.396Z,22.87
2018-08-03T00:25:09.056Z,22.79
2018-08-03T00:27:38.272Z,22.68
2018-08-03T00:30:07.749Z,22.68
2018-08-03T00:32:36.834Z,22.83
2018-08-03T00:35:05.912Z,22.78
2018-08-03T00:37:35.004Z,22.82
2018-08-03T00:40:04.128Z,22.66
2018-08-03T00:42:33.227Z,22.73
2018-08-03T00:45:02.300Z,22.69
2018-08-03T00:47:31.432Z,22.58
2018-08-03T00:50:00.540Z,22.44
2018-08-03T00:52:29.875Z,22.53
2018-08-03T00:54:59.132Z,22.62
2018-08-03T00:57:28.188Z,22.50
2018-08-03T00:59:57.307Z,22.41
2018-08-03T01:02:26.398Z,22.29
2018-08-03T01:04:55.527Z,22.48
2018-08-03T01:07:24.655Z,22.51
2018-08-03T01:09:53.752Z,22.46
2018-08-03T01:12:22.909Z,22.41
2018-08-03T01:14:52.185Z,22.29
2018-08-03T01:17:21.298Z,22.19
2018-08-03T01:19:50.409Z,22.22
2018-08-03T01:22:19.586Z,22.14
2018-08-03T01:24:48.717Z,22.15
2018-08-03T01:27:17.832Z,22.09
2018-08-03T01:29:47.004Z,22.03
2018-08-03T01:32:16.112Z,22.03
2018-08-03T01:34:45.212Z,22.11
2018-08-03T01:37:14.348Z,22.16
2018-08-03T01:39:43.516Z,22.05
2018-08-03T01:42:12.624Z,21.92
2018-08-03T01:44:41.829Z,21.96
2018-08-03T01:47:10.954Z,21.98
2018-08-03T01:49:40.082Z,22.01
2018-08-03T01:52:09.248Z,22.16
2018-08-03T01:54:38.308Z,21.97
2018-08-03T01:57:07.512Z,21.89
2018-08-03T01:59:36.604Z,21.97
2018-08-03T02:02:05.788Z,21.96
2018-08-03T02:04:34.870Z,22.13
2018-08-03T02:07:04.088Z,22.30
2018-08-03T02:09:33.156Z,22.29
2018-08-03T02:12:02.307Z,22.10
2018-08-03T02:14:31.398Z,22.25
2018-08-03T02:17:00.544Z,22.06
2018-08-03T02:19:29.603Z,21.98
2018-08-03T02:21:58.795Z,21.93
2018-08-03T02:24:27.933Z,21.77
2018-08-03T02:26:57.209Z,21.70
2018-08-03T02:29:26.263Z,21.72
2018-08-03T02:31:55.505Z,21.63
2018-08-03T02:34:24.546Z,21.57
2018-08-03T02:36:53.687Z,21.54
2018-08-03T02:39:22.752Z,21.63
2018-08-03T02:41:51.923Z,21.61
2018-08-03T02:44:21.022Z,21.59
2018-08-03T02:46:50.330Z,21.67
2018-08-03T02:49:19.545Z,21.78
2018-08-03T02:51:48.664Z,21.83
2018-08-03T02:54:17.800Z,21.83
2018-08-03T02:56:46.866Z,21.75
2018-08-03T02:59:15.965Z,21.58
2018-08-03T03:01:45.200Z,21.57
2018-08-03T03:04:14.304Z,21.42
2018-08-03T03:06:43.398Z,21.39
2018-08-03T03:09:13.036Z,21.40
2018-08-03T03:11:42.108Z,21.30
2018-08-03T03:14:11.252Z,21.25
2018-08-03T03:16:40.427Z,21.12
2018-08-03T03:19:09.503Z,21.11
2018-08-03T03:21:38.636Z,21.03
2018-08-03T03:24:07.736Z,21.08
2018-08-03T03:26:36.893Z,21.11
2018-08-03T03:29:05.999Z,21.29
2018-08-03T03:31:35.119Z,21.32
2018-08-03T03:34:04.212Z,21.33
2018-08-03T03:36:33.391Z,21.34
2018-08-03T03:39:02.520Z,21.38
2018-08-03T03:41:31.637Z,21.40
2018-08-03T03:44:00.771Z,21.33
2018-08-03T03:46:29.963Z,21.18
2018-08-03T03:48:59.081Z,21.37
2018-08-03T03:51:28.173Z,21.31
2018-08-03T03:53:57.258Z,21.28
2018-08-03T03:56:26.375Z,21.35
2018-08-03T03:58:55.483Z,21.30
2018-08-03T04:01:24.605Z,21.24
2018-08-03T04:03:54.152Z,21.23
2018-08-03T04:06:23.307Z,21.29
2018-08-03T04:08:52.486Z,21.42
2018-08-03T04:11:21.604Z,21.66
2018-08-03T04:13:50.930Z,21.66
2018-08-03T04:16:20.084Z,21.45
2018-08-03T04:18:49.177Z,21.33
2018-08-03T04:21:18.326Z,21.27
2018-08-03T04:23:47.448Z,21.27
2018-08-03T04:26:16.572Z,21.27
2018-08-03T04:28:45.685Z,21.51
2018-08-03T04:31:14.873Z,21.62
2018-08-03T04:33:43.980Z,21.62
2018-08-03T04:36:13.104Z,21.63
2018-08-03T04:38:42.236Z,21.50
2018-08-03T04:41:11.344Z,21.50
2018-08-03T04:43:40.456Z,21.42
2018-08-03T04:46:09.639Z,21.42
2018-08-03T04:48:38.870Z,21.43
2018-08-03T04:51:07.975Z,21.38
2018-08-03T04:53:37.069Z,21.46
2018-08-03T04:56:06.153Z,21.52
2018-08-03T04:58:35.289Z,21.62
2018-08-03T05:01:04.485Z,21.66
2018-08-03T05:03:33.729Z,21.64
2018-08-03T05:06:03.099Z,21.66
2018-08-03T05:08:32.286Z,21.67
2018-08-03T05:11:01.347Z,21.65
2018-08-03T05:13:30.495Z,21.67
2018-08-03T05:15:59.761Z,21.67
2018-08-03T05:18:28.973Z,21.70
2018-08-03T05:20:58.231Z,21.82
2018-08-03T05:23:27.511Z,21.81
2018-08-03T05:25:56.617Z,21.87
2018-08-03T05:28:25.723Z,21.96
2018-08-03T05:30:54.847Z,21.88
2018-08-03T05:33:23.997Z,21.97
2018-08-03T05:35:53.236Z,22.11
2018-08-03T05:38:22.368Z,21.96
2018-08-03T05:40:51.480Z,22.03
2018-08-03T05:43:20.594Z,22.07
2018-08-03T05:45:49.786Z,22.19
2018-08-03T05:48:18.964Z,22.20
2018-08-03T05:50:48.065Z,22.22
2018-08-03T05:53:17.222Z,22.30
2018-08-03T05:55:46.344Z,22.33
2018-08-03T05:58:15.550Z,22.37
2018-08-03T06:00:44.615Z,22.44
2018-08-03T06:03:13.846Z,22.54
2018-08-03T06:05:43.084Z,22.52
2018-08-03T06:08:12.292Z,22.47
2018-08-03T06:10:41.527Z,22.54
2018-08-03T06:13:10.812Z,22.59
2018-08-03T06:15:39.974Z,22.63
2018-08-03T06:18:09.098Z,22.72
2018-08-03T06:20:38.376Z,22.75
2018-08-03T06:23:07.523Z,22.73
2018-08-03T06:25:36.623Z,22.72
2018-08-03T06:28:05.999Z,22.74
2018-08-03T06:30:35.179Z,22.75
2018-08-03T06:33:04.363Z,22.85
2018-08-03T06:35:33.622Z,22.87
2018-08-03T06:38:02.768Z,22.91
2018-08-03T06:40:31.912Z,22.98
2018-08-03T06:43:01.073Z,23.05
2018-08-03T06:45:30.172Z,23.09
2018-08-03T06:47:59.473Z,23.11
2018-08-03T06:50:28.561Z,23.17
2018-08-03T06:52:57.877Z,23.27
2018-08-03T06:55:26.981Z,23.29
2018-08-03T06:57:56.093Z,23.32
2018-08-03T07:00:25.219Z,23.30
2018-08-03T07:02:54.429Z,23.30
2018-08-03T07:05:23.468Z,23.41
2018-08-03T07:07:52.570Z,23.47
2018-08-03T07:10:21.667Z,23.54
2018-08-03T07:12:51.031Z,23.55
2018-08-03T07:15:20.169Z,23.59
2018-08-03T07:17:49.232Z,23.64
2018-08-03T07:20:18.409Z,23.68
2018-08-03T07:22:47.548Z,23.72
2018-08-03T07:25:16.652Z,23.73
2018-08-03T07:27:45.905Z,23.84
2018-08-03T07:30:15.026Z,23.90
2018-08-03T07:32:44.132Z,23.90
2018-08-03T07:35:13.236Z,23.95
2018-08-03T07:37:42.402Z,24.06
2018-08-03T07:40:11.570Z,24.02
2018-08-03T07:42:40.620Z,24.07
2018-08-03T07:45:09.820Z,24.17
2018-08-03T07:47:38.967Z,24.36
2018-08-03T07:50:08.143Z,24.45
2018-08-03T07:52:37.313Z,24.50
2018-08-03T07:55:06.463Z,24.53
2018-08-03T07:57:35.825Z,24.43
2018-08-03T08:00:05.895Z,24.56
2018-08-03T08:02:35.001Z,24.68
2018-08-03T08:05:04.149Z,24.71
2018-08-03T08:07:33.301Z,24.83
2018-08-03T08:10:02.403Z,24.96
2018-08-03T08:12:31.531Z,25.08
2018-08-03T08:15:00.666Z,25.12
2018-08-03T08:17:29.901Z,25.17
2018-08-03T08:19:59.168Z,25.24
2018-08-03T08:22:28.236Z,25.29
2018-08-03T08:24:57.938Z,25.23
2018-08-03T08:27:27.108Z,25.24
2018-08-03T08:29:56.269Z,25.32
2018-08-03T08:32:25.389Z,25.40
2018-08-03T08:34:54.690Z,25.39
2018-08-03T08:37:23.897Z,25.42
2018-08-03T08:39:53.057Z,25.49
2018-08-03T08:42:22.528Z,25.60
2018-08-03T08:44:51.669Z,25.61
2018-08-03T08:47:20.737Z,25.74
2018-08-03T08:49:49.954Z,25.83
2018-08-03T08:52:19.128Z,25.92
2018-08-03T08:54:48.366Z,25.96
2018-08-03T08:57:17.392Z,26.03
2018-08-03T08:59:46.608Z,26.20
2018-08-03T09:02:15.851Z,26.32
2018-08-03T09:04:44.961Z,26.53
2018-08-03T09:07:14.032Z,26.66
2018-08-03T09:09:43.178Z,26.61
2018-08-03T09:12:12.348Z,26.60
2018-08-03T09:14:41.429Z,26.42
2018-08-03T09:17:10.879Z,26.32
2018-08-03T09:19:40.079Z,26.55
2018-08-03T09:22:09.314Z,26.63
2018-08-03T09:24:38.579Z,26.39
2018-08-03T09:27:07.705Z,26.37
2018-08-03T09:29:36.916Z,26.36
2018-08-03T09:32:06.081Z,26.56
2018-08-03T09:34:35.197Z,26.92
2018-08-03T09:37:04.399Z,27.01
2018-08-03T09:39:33.561Z,27.11
2018-08-03T09:42:02.911Z,27.14
2018-08-03T09:44:32.108Z,27.00
2018-08-03T09:47:01.324Z,27.11
2018-08-03T09:49:30.396Z,26.97
2018-08-03T09:51:59.592Z,26.95
2018-08-03T09:54:28.899Z,26.89
2018-08-03T09:56:58.039Z,26.89
2018-08-03T09:59:27.128Z,27.07
2018-08-03T10:01:56.363Z,27.44
2018-08-03T10:04:25.551Z,27.34
2018-08-03T10:06:54.615Z,27.42
2018-08-03T10:09:23.735Z,27.31
2018-08-03T10:11:53.057Z,27.39
2018-08-03T10:14:22.199Z,27.42
2018-08-03T10:16:51.376Z,27.46
2018-08-03T10:19:20.644Z,27.86
2018-08-03T10:21:49.847Z,27.93
2018-08-03T10:24:18.983Z,27.91
2018-08-03T10:26:48.154Z,27.94
2018-08-03T10:29:17.732Z,27.78
2018-08-03T10:31:46.920Z,27.73
2018-08-03T10:34:16.098Z,27.83
2018-08-03T10:36:45.259Z,28.01
2018-08-03T10:39:14.321Z,28.02
2018-08-03T10:41:43.438Z,27.98
2018-08-03T10:44:12.724Z,28.12
2018-08-03T10:46:41.883Z,28.56
2018-08-03T10:49:11.030Z,28.61
2018-08-03T10:51:40.308Z,28.33
2018-08-03T10:54:09.391Z,28.50
2018-08-03T10:56:38.678Z,28.89
2018-08-03T10:59:07.798Z,29.05
2018-08-03T11:01:36.991Z,29.10
2018-08-03T11:04:06.300Z,29.13
2018-08-03T11:06:35.547Z,29.34
2018-08-03T11:09:06.295Z,29.19
2018-08-03T11:11:35.471Z,29.23
2018-08-03T11:14:04.671Z,29.07
2018-08-03T11:16:33.843Z,29.31
2018-08-03T11:19:03.198Z,29.24
2018-08-03T11:21:32.377Z,29.23
2018-08-03T11:24:01.699Z,29.58
2018-08-03T11:26:30.856Z,30.03
2018-08-03T11:29:00.037Z,30.00
2018-08-03T11:31:29.323Z,29.81
2018-08-03T11:33:58.427Z,29.60
2018-08-03T11:36:27.559Z,29.60
2018-08-03T11:38:56.727Z,29.63
2018-08-03T11:41:25.931Z,29.76
2018-08-03T11:43:55.120Z,29.86
2018-08-03T11:46:24.231Z,30.04
2018-08-03T11:48:53.904Z,30.48
2018-08-03T11:51:23.153Z,30.56
2018-08-03T11:53:52.451Z,30.69
2018-08-03T11:56:21.556Z,30.71
2018-08-03T11:58:51.021Z,30.72
2018-08-03T12:01:20.256Z,30.95
2018-08-03T12:03:49.436Z,31.17
2018-08-03T12:06:18.608Z,31.12
2018-08-03T12:08:47.776Z,31.34
2018-08-03T12:11:16.936Z,31.36
2018-08-03T12:13:46.086Z,31.27
2018-08-03T12:16:15.302Z,31.55
2018-08-03T12:18:44.584Z,31.80
2018-08-03T12:21:13.812Z,31.85
2018-08-03T12:23:42.993Z,32.31
2018-08-03T12:26:12.174Z,32.52
2018-08-03T12:28:41.290Z,32.55
2018-08-03T12:31:10.915Z,33.15
2018-08-03T12:33:39.986Z,33.30
2018-08-03T12:36:09.120Z,33.77
2018-08-03T12:38:38.316Z,33.79
2018-08-03T12:41:07.460Z,34.19
2018-08-03T12:43:36.608Z,34.59
2018-08-03T12:46:05.784Z,34.65
2018-08-03T12:48:34.872Z,34.77
2018-08-03T12:51:04.107Z,34.63
2018-08-03T12:53:33.247Z,34.95
2018-08-03T12:56:02.341Z,35.02
2018-08-03T12:58:31.427Z,35.12
2018-08-03T13:01:00.733Z,35.09
2018-08-03T13:03:29.883Z,35.08
2018-08-03T13:05:59.097Z,35.14
2018-08-03T13:08:28.521Z,34.89
2018-08-03T13:10:57.559Z,35.02
2018-08-03T13:13:26.707Z,35.10
2018-08-03T13:15:55.797Z,35.72
2018-08-03T13:18:24.867Z,35.82
2018-08-03T13:20:54.041Z,35.50
2018-08-03T13:23:23.210Z,35.46
2018-08-03T13:25:52.311Z,35.51
2018-08-03T13:28:21.411Z,36.21
2018-08-03T13:30:50.601Z,35.77
2018-08-03T13:33:19.751Z,35.56
2018-08-03T13:35:48.904Z,35.87
2018-08-03T13:38:18.057Z,36.18
2018-08-03T13:40:47.145Z,35.99
2018-08-03T13:43:16.300Z,36.02
2018-08-03T13:45:45.413Z,36.37
2018-08-03T13:48:14.486Z,35.91
2018-08-03T13:50:46.961Z,35.82
2018-08-03T13:53:16.468Z,36.15
2018-08-03T13:55:45.546Z,35.47
2018-08-03T13:58:14.677Z,35.72
2018-08-03T14:00:43.949Z,35.84
2018-08-03T14:03:13.026Z,36.13
2018-08-03T14:05:42.161Z,35.62
2018-08-03T14:08:11.323Z,35.79
2018-08-03T14:10:40.516Z,35.83
2018-08-03T14:13:09.672Z,36.01
2018-08-03T14:15:39.014Z,35.73
2018-08-03T14:18:08.146Z,35.46
2018-08-03T14:20:37.324Z,36.03
2018-08-03T14:23:06.606Z,35.79
2018-08-03T14:25:35.718Z,35.54
2018-08-03T14:28:04.854Z,35.63
2018-08-03T14:30:34.038Z,36.08
2018-08-03T14:33:03.144Z,36.01
2018-08-03T14:35:32.467Z,36.09
2018-08-03T14:38:01.655Z,36.17
2018-08-03T14:40:30.762Z,36.06
2018-08-03T14:42:59.846Z,36.00
2018-08-03T14:45:29.021Z,36.57
2018-08-03T14:47:58.107Z,36.81
2018-08-03T14:50:27.205Z,36.18
2018-08-03T14:52:56.295Z,36.19
2018-08-03T14:55:25.537Z,36.53
2018-08-03T14:57:54.679Z,36.57
2018-08-03T15:00:23.782Z,36.43
2018-08-03T15:02:52.954Z,36.44
2018-08-03T15:05:22.204Z,36.45
2018-08-03T15:07:51.429Z,36.09
2018-08-03T15:10:20.475Z,35.63
2018-08-03T15:12:49.581Z,35.75
2018-08-03T15:15:18.709Z,36.15
2018-08-03T15:17:47.876Z,35.26
2018-08-03T15:20:16.941Z,35.32
2018-08-03T15:22:46.061Z,35.61
2018-08-03T15:25:15.126Z,35.57
2018-08-03T15:27:44.266Z,34.58
2018-08-03T15:30:13.432Z,33.75
2018-08-03T15:32:42.536Z,34.01
2018-08-03T15:35:11.759Z,35.27
2018-08-03T15:37:40.820Z,36.20
2018-08-03T15:40:10.051Z,36.21
2018-08-03T15:42:39.286Z,36.08
2018-08-03T15:45:09.060Z,36.20
2018-08-03T15:47:38.272Z,36.04
2018-08-03T15:50:07.544Z,36.41
2018-08-03T15:52:36.699Z,36.18
2018-08-03T15:55:06.020Z,36.11
2018-08-03T15:57:35.416Z,36.02
2018-08-03T16:00:06.356Z,35.99
2018-08-03T16:02:35.612Z,36.27
2018-08-03T16:05:05.036Z,36.15
2018-08-03T16:07:34.145Z,36.34
2018-08-03T16:10:03.300Z,36.10
2018-08-03T16:12:32.450Z,36.37
2018-08-03T16:15:01.570Z,36.46
2018-08-03T16:17:30.671Z,36.54
2018-08-03T16:19:59.910Z,36.45
2018-08-03T16:22:30.439Z,36.27
2018-08-03T16:24:59.668Z,36.05
2018-08-03T16:27:28.772Z,36.02
2018-08-03T16:29:57.876Z,35.81
2018-08-03T16:32:26.960Z,35.93
2018-08-03T16:34:56.281Z,35.68
2018-08-03T16:37:25.463Z,35.64
2018-08-03T16:39:54.644Z,35.72
2018-08-03T16:42:23.769Z,35.55
2018-08-03T16:44:52.839Z,35.59
2018-08-03T16:47:21.943Z,35.82
2018-08-03T16:49:51.089Z,35.93
2018-08-03T16:52:20.337Z,35.65
2018-08-03T16:54:49.493Z,35.69
2018-08-03T16:57:18.623Z,35.57
2018-08-03T16:59:47.719Z,35.24
2018-08-03T17:02:16.850Z,35.33
2018-08-03T17:04:46.054Z,35.25
2018-08-03T17:07:15.195Z,34.34
2018-08-03T17:09:44.301Z,34.11
2018-08-03T17:12:13.388Z,34.10
2018-08-03T17:14:42.685Z,34.25
2018-08-03T17:17:11.826Z,34.46
2018-08-03T17:19:40.909Z,33.80
2018-08-03T17:22:09.996Z,33.54
2018-08-03T17:24:39.107Z,33.65
2018-08-03T17:27:08.205Z,33.40
2018-08-03T17:29:37.388Z,32.55
2018-08-03T17:32:06.675Z,32.06
2018-08-03T17:34:35.739Z,31.97
2018-08-03T17:37:04.926Z,31.48
2018-08-03T17:39:34.124Z,31.36
2018-08-03T17:42:03.252Z,31.18
2018-08-03T17:44:32.392Z,30.85
2018-08-03T17:47:01.445Z,30.91
2018-08-03T17:49:30.567Z,30.75
2018-08-03T17:51:59.619Z,30.49
2018-08-03T17:54:28.739Z,30.37
2018-08-03T17:56:57.939Z,30.11
2018-08-03T17:59:27.141Z,30.17
2018-08-03T18:01:56.219Z,30.10
2018-08-03T18:04:25.436Z,30.14
2018-08-03T18:06:54.508Z,30.02
2018-08-03T18:09:23.664Z,30.30
2018-08-03T18:11:52.712Z,30.23
2018-08-03T18:14:21.854Z,30.07
2018-08-03T18:16:51.009Z,30.01
2018-08-03T18:19:20.213Z,29.81
2018-08-03T18:21:49.316Z,29.70
2018-08-03T18:24:18.397Z,29.65
2018-08-03T18:26:48.315Z,29.69
2018-08-03T18:29:17.525Z,29.55
2018-08-03T18:31:46.717Z,29.44
2018-08-03T18:34:15.779Z,29.29
2018-08-03T18:36:44.900Z,29.28
2018-08-03T18:39:13.969Z,29.32
2018-08-03T18:41:43.089Z,29.32
2018-08-03T18:44:12.497Z,29.22
2018-08-03T18:46:41.601Z,29.25
2018-08-03T18:49:10.718Z,29.16
2018-08-03T18:51:39.840Z,29.09
2018-08-03T18:54:08.949Z,29.14
2018-08-03T18:56:38.082Z,29.14
2018-08-03T18:59:08.107Z,29.08
2018-08-03T19:01:37.197Z,29.15
2018-08-03T19:04:06.440Z,29.19
2018-08-03T19:06:35.560Z,29.20
2018-08-03T19:09:06.708Z,29.11
2018-08-03T19:11:35.808Z,29.14
2018-08-03T19:14:04.953Z,28.93
2018-08-03T19:16:34.072Z,29.02
2018-08-03T19:19:06.813Z,29.02
2018-08-03T19:21:36.363Z,29.02
2018-08-03T19:24:06.057Z,28.98
2018-08-03T19:26:35.196Z,28.95
2018-08-03T19:29:04.366Z,28.94
2018-08-03T19:31:33.482Z,28.83
2018-08-03T19:34:02.568Z,28.76
2018-08-03T19:36:31.634Z,28.60
2018-08-03T19:39:00.728Z,28.58
2018-08-03T19:41:29.884Z,28.58
2018-08-03T19:43:59.044Z,28.39
2018-08-03T19:46:28.312Z,28.31
2018-08-03T19:48:57.396Z,28.29
2018-08-03T19:51:26.516Z,28.36
2018-08-03T19:53:55.638Z,28.40
2018-08-03T19:56:24.768Z,28.33
2018-08-03T19:58:54.328Z,28.04
2018-08-03T20:01:23.599Z,28.00
2018-08-03T20:03:52.735Z,28.07
2018-08-03T20:06:22.419Z,27.99
2018-08-03T20:08:51.851Z,27.86
2018-08-03T20:11:21.228Z,27.87
2018-08-03T20:13:50.871Z,27.80
2018-08-03T20:16:20.458Z,27.78
2018-08-03T20:18:49.857Z,27.66
2018-08-03T20:21:19.274Z,27.64
2018-08-03T20:23:48.905Z,27.64
2018-08-03T20:26:18.216Z,27.64
2018-08-03T20:28:47.509Z,27.56
2018-08-03T20:31:17.036Z,27.45
2018-08-03T20:33:46.396Z,27.25
2018-08-03T20:36:15.707Z,27.23
2018-08-03T20:38:45.109Z,27.20
2018-08-03T20:41:14.485Z,26.95
2018-08-03T20:43:43.781Z,26.88
2018-08-03T20:46:13.321Z,27.00
2018-08-03T20:48:42.552Z,27.00
2018-08-03T20:51:11.738Z,26.85
2018-08-03T20:53:41.139Z,26.96
2018-08-03T20:56:10.795Z,26.87
2018-08-03T20:58:40.050Z,26.90
2018-08-03T21:01:09.185Z,26.82
2018-08-03T21:03:38.529Z,26.61
2018-08-03T21:06:08.210Z,26.56
2018-08-03T21:08:37.769Z,26.55
2018-08-03T21:11:06.951Z,26.43
2018-08-03T21:13:36.095Z,26.44
2018-08-03T21:16:05.337Z,26.46
2018-08-03T21:18:34.745Z,26.33
2018-08-03T21:21:04.164Z,26.35
2018-08-03T21:23:33.640Z,26.28
2018-08-03T21:26:02.965Z,26.27
2018-08-03T21:28:32.557Z,26.31
2018-08-03T21:31:02.095Z,26.07
2018-08-03T21:33:31.478Z,25.88
2018-08-03T21:36:00.900Z,25.80
2018-08-03T21:38:30.576Z,25.61
2018-08-03T21:40:59.945Z,25.80
2018-08-03T21:43:29.583Z,25.76
2018-08-03T21:45:58.766Z,25.77
2018-08-03T21:48:27.962Z,25.57
2018-08-03T21:50:57.102Z,25.50
2018-08-03T21:53:26.207Z,25.54
2018-08-03T21:55:55.314Z,25.47
2018-08-03T21:58:24.644Z,25.43
2018-08-03T22:00:53.739Z,25.31
2018-08-03T22:03:22.818Z,25.32
2018-08-03T22:05:51.898Z,25.33
2018-08-03T22:08:20.975Z,25.29
2018-08-03T22:10:50.166Z,25.23
2018-08-03T22:13:19.253Z,25.18
2018-08-03T22:15:48.316Z,25.13
2018-08-03T22:18:17.459Z,24.93
2018-08-03T22:20:46.522Z,24.95
2018-08-03T22:23:15.597Z,25.02
2018-08-03T22:25:44.679Z,24.84
2018-08-03T22:28:17.026Z,24.85
2018-08-03T22:30:46.112Z,24.67
2018-08-03T22:33:15.320Z,24.69
2018-08-03T22:35:44.499Z,24.72
2018-08-03T22:38:13.651Z,24.85
2018-08-03T22:40:42.719Z,24.78
2018-08-03T22:43:11.998Z,24.69
2018-08-03T22:45:41.351Z,24.71
2018-08-03T22:48:10.345Z,24.69
2018-08-03T22:50:39.490Z,24.64
2018-08-03T22:53:08.764Z,24.52
2018-08-03T22:55:37.914Z,24.64
2018-08-03T22:58:06.995Z,24.54
2018-08-03T23:00:36.094Z,24.53
2018-08-03T23:03:05.274Z,24.55
2018-08-03T23:05:34.362Z,24.48
2018-08-03T23:08:03.488Z,24.37
2018-08-03T23:10:32.558Z,24.37
2018-08-03T23:13:01.638Z,24.31
2018-08-03T23:15:30.796Z,24.33
2018-08-03T23:18:00.255Z,24.29
2018-08-03T23:20:29.451Z,24.33
2018-08-03T23:22:58.563Z,24.30
2018-08-03T23:25:27.596Z,24.27
2018-08-03T23:27:56.643Z,24.13
2018-08-03T23:30:25.860Z,24.19
2018-08-03T23:32:55.024Z,24.12
2018-08-03T23:35:24.148Z,24.15
2018-08-03T23:37:53.231Z,23.98
2018-08-03T23:40:22.316Z,23.98
2018-08-03T23:42:51.403Z,24.07
2018-08-03T23:45:20.547Z,24.05
2018-08-03T23:47:49.677Z,23.82
2018-08-03T23:50:19.527Z,24.07
2018-08-03T23:52:49.614Z,23.93
2018-08-03T23:55:18.731Z,23.85
2018-08-03T23:57:47.807Z,23.84
